首页
METAR-TAF:

METAR-TAF

机场 :

Wheeling - Ohio County Airport

惠灵, 西維吉尼亞州, 美国

纬度: 40-10-13N, 经度: 080-38-40W, 海拔: 364米

当前天气观测

该预报发布于36分钟前的18:53 UTC
风速6节,风向西
温度 4°C
湿度 41%
气压 1029 hPa
能見度: 16.1公里
天空无云

METAR: KHLG 191853Z 28006KT 10SM CLR 04/M08 A3040 RMK AO2 SLP306 T00391078 $

时间: 14:29 (19:29 UTC)

预报

该预报发布于1小时和49分钟前的17:40 UTC
预报有效从19日的 18点(UTC)到 20日的 18点(UTC)
风速8节,风向西转西北
能見度: 10公里
少量云层高于2500英尺
从 20日的 1100点(UTC)
风速6节,风向北转西北
能見度: 10公里
多云层高于5000英尺

TAF: KHLG 191740Z 1918/2018 29008KT P6SM FEW025 FM201100 33006KT P6SM BKN050

超过4000个机场的气象观测和天气预报(METAR&TAF报告)。

可查询的气象台以黄色和红色小点在地图上表示。

将鼠标移到小点上方,可查看气象台名称。

然后点击查看天气观测和预报。

如需切换地图:点击带黑十字的绿色按钮放大地图;点击带横线的绿色按钮缩小地图;或者点击绿色箭头查看邻近地区的地图。


METAR-TAF: